createdAt,value
2018-08-13T00:00:38.024Z,53.42
2018-08-13T00:03:05.588Z,53.07
2018-08-13T00:05:33.025Z,53.20
2018-08-13T00:08:00.630Z,53.25
2018-08-13T00:10:28.073Z,53.71
2018-08-13T00:12:55.564Z,53.25
2018-08-13T00:18:07.040Z,53.45
2018-08-13T00:20:34.627Z,53.40
2018-08-13T00:23:02.142Z,53.61
2018-08-13T00:25:29.701Z,53.90
2018-08-13T00:27:57.194Z,53.87
2018-08-13T00:30:24.834Z,54.40
2018-08-13T00:32:52.335Z,54.04
2018-08-13T00:35:20.015Z,54.14
2018-08-13T00:37:47.512Z,54.26
2018-08-13T00:40:15.010Z,53.98
2018-08-13T00:42:42.717Z,53.84
2018-08-13T00:45:11.808Z,53.95
2018-08-13T00:47:39.473Z,54.52
2018-08-13T00:50:10.854Z,54.31
2018-08-13T00:52:38.625Z,54.55
2018-08-13T00:55:07.168Z,54.36
2018-08-13T00:57:35.081Z,54.67
2018-08-13T01:00:02.558Z,54.86
2018-08-13T01:02:30.019Z,54.81
2018-08-13T01:04:57.782Z,54.55
2018-08-13T01:07:25.292Z,54.98
2018-08-13T01:09:52.717Z,54.96
2018-08-13T01:12:20.383Z,54.49
2018-08-13T01:14:47.918Z,54.81
2018-08-13T01:17:15.416Z,54.93
2018-08-13T01:19:43.228Z,55.04
2018-08-13T01:22:10.808Z,55.21
2018-08-13T01:24:38.294Z,55.22
2018-08-13T01:27:05.911Z,55.96
2018-08-13T01:29:33.430Z,55.50
2018-08-13T01:32:00.906Z,56.37
2018-08-13T01:34:28.608Z,56.25
2018-08-13T01:36:56.086Z,56.67
2018-08-13T01:39:23.557Z,56.68
2018-08-13T01:41:51.383Z,57.04
2018-08-13T01:44:18.836Z,57.14
2018-08-13T01:46:46.286Z,57.53
2018-08-13T01:49:13.941Z,57.48
2018-08-13T01:51:41.414Z,58.03
2018-08-13T01:54:08.862Z,58.11
2018-08-13T01:56:36.553Z,58.21
2018-08-13T01:59:04.124Z,57.98
2018-08-13T02:01:31.692Z,58.49
2018-08-13T02:03:59.384Z,58.55
2018-08-13T02:06:26.828Z,58.38
2018-08-13T02:08:54.257Z,59.29
2018-08-13T02:11:21.995Z,59.19
2018-08-13T02:13:49.466Z,59.38
2018-08-13T02:16:16.894Z,59.56
2018-08-13T02:18:44.812Z,59.09
2018-08-13T02:21:12.540Z,59.27
2018-08-13T02:23:40.084Z,59.38
2018-08-13T02:26:07.834Z,59.63
2018-08-13T02:28:35.300Z,60.06
2018-08-13T02:31:02.800Z,59.88
2018-08-13T02:33:30.997Z,59.79
2018-08-13T02:35:58.448Z,59.89
2018-08-13T02:38:25.989Z,60.29
2018-08-13T02:40:53.686Z,60.53
2018-08-13T02:43:21.182Z,60.30
2018-08-13T02:45:48.759Z,60.00
2018-08-13T02:48:16.420Z,60.45
2018-08-13T02:50:43.856Z,60.25
2018-08-13T02:53:11.367Z,60.50
2018-08-13T02:55:39.093Z,60.27
2018-08-13T02:58:06.630Z,60.68
2018-08-13T03:00:34.119Z,60.30
2018-08-13T03:03:01.872Z,60.56
2018-08-13T03:05:29.373Z,60.67
2018-08-13T03:07:56.890Z,60.33
2018-08-13T03:10:24.509Z,60.90
2018-08-13T03:12:52.017Z,60.64
2018-08-13T03:15:19.472Z,60.57
2018-08-13T03:17:47.115Z,60.60
2018-08-13T03:20:14.568Z,60.67
2018-08-13T03:22:42.350Z,60.66
2018-08-13T03:25:10.472Z,60.95
2018-08-13T03:27:38.002Z,60.79
2018-08-13T03:30:08.055Z,60.42
2018-08-13T03:32:35.933Z,60.35
2018-08-13T03:35:03.999Z,60.36
2018-08-13T03:37:31.540Z,60.66
2018-08-13T03:39:59.347Z,60.12
2018-08-13T03:42:26.916Z,60.12
2018-08-13T03:44:54.482Z,60.01
2018-08-13T03:47:22.322Z,60.46
2018-08-13T03:49:49.818Z,60.55
2018-08-13T03:52:17.310Z,60.11
2018-08-13T03:54:45.041Z,60.14
2018-08-13T03:57:12.588Z,60.12
2018-08-13T03:59:40.010Z,60.48
2018-08-13T04:02:08.221Z,60.10
2018-08-13T04:04:35.700Z,60.43
2018-08-13T04:07:03.240Z,60.07
2018-08-13T04:09:30.954Z,60.28
2018-08-13T04:11:58.461Z,60.20
2018-08-13T04:14:25.984Z,60.06
2018-08-13T04:16:58.619Z,60.53
2018-08-13T04:19:26.151Z,60.43
2018-08-13T04:21:53.635Z,59.86
2018-08-13T04:24:21.440Z,60.30
2018-08-13T04:26:48.895Z,59.95
2018-08-13T04:29:16.379Z,60.08
2018-08-13T04:31:44.116Z,60.25
2018-08-13T04:34:11.645Z,60.04
2018-08-13T04:36:39.488Z,59.86
2018-08-13T04:39:09.129Z,59.49
2018-08-13T04:41:36.650Z,59.71
2018-08-13T04:44:04.257Z,59.64
2018-08-13T04:46:31.883Z,59.42
2018-08-13T04:48:59.343Z,59.83
2018-08-13T04:51:26.834Z,59.33
2018-08-13T04:53:54.417Z,59.39
2018-08-13T04:56:21.952Z,59.23
2018-08-13T04:58:49.421Z,59.54
2018-08-13T05:01:17.044Z,59.71
2018-08-13T05:03:44.529Z,59.17
2018-08-13T05:06:12.070Z,59.71
2018-08-13T05:08:39.736Z,59.91
2018-08-13T05:11:07.208Z,59.57
2018-08-13T05:13:34.800Z,59.27
2018-08-13T05:16:02.484Z,59.48
2018-08-13T05:18:30.062Z,59.61
2018-08-13T05:20:57.661Z,59.23
2018-08-13T05:23:25.264Z,59.07
2018-08-13T05:25:52.732Z,59.39
2018-08-13T05:28:20.267Z,59.12
2018-08-13T05:30:47.912Z,59.10
2018-08-13T05:33:15.403Z,59.31
2018-08-13T05:35:42.978Z,58.92
2018-08-13T05:38:11.060Z,59.15
2018-08-13T05:40:38.570Z,58.74
2018-08-13T05:43:06.197Z,58.87
2018-08-13T05:45:33.757Z,58.94
2018-08-13T05:48:01.276Z,59.19
2018-08-13T05:50:28.835Z,59.13
2018-08-13T05:52:56.723Z,58.82
2018-08-13T05:55:24.208Z,58.90
2018-08-13T05:57:51.783Z,58.64
2018-08-13T06:00:19.522Z,58.83
2018-08-13T06:02:47.051Z,58.78
2018-08-13T06:05:45.518Z,58.39
2018-08-13T06:08:13.014Z,58.38
2018-08-13T06:10:40.539Z,58.43
2018-08-13T06:13:08.278Z,58.40
2018-08-13T06:15:35.748Z,58.29
2018-08-13T06:18:03.577Z,58.18
2018-08-13T06:20:31.110Z,58.48
2018-08-13T06:22:58.689Z,58.51
2018-08-13T06:25:26.123Z,57.79
2018-08-13T06:27:53.751Z,57.71
2018-08-13T06:30:21.318Z,58.00
2018-08-13T06:32:48.851Z,57.89
2018-08-13T06:35:16.441Z,57.92
2018-08-13T06:37:44.199Z,57.71
2018-08-13T06:40:12.162Z,57.44
2018-08-13T06:42:39.765Z,57.59
2018-08-13T06:45:08.493Z,57.25
2018-08-13T06:47:36.182Z,57.75
2018-08-13T06:50:05.222Z,57.55
2018-08-13T06:52:32.773Z,57.57
2018-08-13T06:55:00.306Z,56.92
2018-08-13T06:57:28.067Z,56.92
2018-08-13T06:59:55.539Z,56.71
2018-08-13T07:02:22.999Z,57.11
2018-08-13T07:04:51.092Z,56.53
2018-08-13T07:07:18.584Z,56.73
2018-08-13T07:09:46.028Z,56.57
2018-08-13T07:12:13.625Z,56.76
2018-08-13T07:14:41.159Z,56.48
2018-08-13T07:17:08.618Z,56.55
2018-08-13T07:19:36.341Z,56.30
2018-08-13T07:22:03.976Z,56.30
2018-08-13T07:24:31.489Z,56.39
2018-08-13T07:26:59.170Z,56.79
2018-08-13T07:29:26.692Z,56.50
2018-08-13T07:31:54.274Z,56.16
2018-08-13T07:34:22.098Z,56.68
2018-08-13T07:36:49.573Z,56.14
2018-08-13T07:39:17.105Z,56.69
2018-08-13T07:41:45.059Z,56.39
2018-08-13T07:44:12.695Z,56.38
2018-08-13T07:46:40.254Z,56.70
2018-08-13T07:49:08.154Z,56.11
2018-08-13T07:51:35.699Z,56.15
2018-08-13T07:54:03.378Z,56.43
2018-08-13T07:56:31.392Z,56.09
2018-08-13T07:58:58.877Z,55.85
2018-08-13T08:01:26.370Z,55.89
2018-08-13T08:03:54.165Z,56.16
2018-08-13T08:06:21.697Z,56.55
2018-08-13T08:08:49.200Z,56.65
2018-08-13T08:11:16.995Z,56.60
2018-08-13T08:13:44.569Z,56.46
2018-08-13T08:16:12.079Z,56.53
2018-08-13T08:18:39.797Z,55.90
2018-08-13T08:21:07.367Z,56.12
2018-08-13T08:23:34.933Z,55.93
2018-08-13T08:26:02.623Z,56.04
2018-08-13T08:28:30.093Z,55.86
2018-08-13T08:30:57.596Z,55.97
2018-08-13T08:33:25.451Z,55.73
2018-08-13T08:35:52.980Z,55.78
2018-08-13T08:38:20.472Z,55.18
2018-08-13T08:40:48.309Z,54.90
2018-08-13T08:43:16.078Z,55.09
2018-08-13T08:45:43.648Z,55.48
2018-08-13T08:48:11.736Z,55.27
2018-08-13T08:50:39.229Z,55.46
2018-08-13T08:53:06.735Z,55.07
2018-08-13T08:55:34.359Z,54.88
2018-08-13T08:58:01.834Z,54.74
2018-08-13T09:00:29.402Z,55.14
2018-08-13T09:02:57.149Z,55.08
2018-08-13T09:05:24.674Z,54.55
2018-08-13T09:07:52.190Z,54.93
2018-08-13T09:10:19.974Z,54.38
2018-08-13T09:12:47.419Z,54.59
2018-08-13T09:15:16.221Z,54.52
2018-08-13T09:17:55.553Z,54.07
2018-08-13T09:20:34.191Z,54.16
2018-08-13T09:23:13.012Z,53.91
2018-08-13T09:25:51.766Z,54.06
2018-08-13T09:28:30.539Z,53.54
2018-08-13T09:31:13.561Z,53.19
2018-08-13T09:33:52.390Z,53.47
2018-08-13T09:36:19.949Z,53.34
2018-08-13T09:38:47.430Z,52.91
2018-08-13T09:41:15.165Z,52.71
2018-08-13T09:43:42.802Z,52.56
2018-08-13T09:46:10.301Z,52.55
2018-08-13T09:48:38.004Z,52.37
2018-08-13T09:51:05.663Z,52.16
2018-08-13T09:53:33.188Z,52.04
2018-08-13T09:56:00.822Z,51.64
2018-08-13T09:58:28.399Z,51.06
2018-08-13T10:01:01.460Z,50.54
2018-08-13T10:03:29.067Z,50.33
2018-08-13T10:05:56.633Z,50.30
2018-08-13T10:08:24.158Z,50.39
2018-08-13T10:10:51.927Z,49.93
2018-08-13T10:13:19.483Z,49.72
2018-08-13T10:15:47.024Z,49.48
2018-08-13T10:18:14.731Z,49.36
2018-08-13T10:20:42.324Z,49.86
2018-08-13T10:23:09.737Z,49.34
2018-08-13T10:25:37.582Z,49.65
2018-08-13T10:28:05.083Z,49.27
2018-08-13T10:30:32.549Z,49.26
2018-08-13T10:33:00.090Z,48.84
2018-08-13T10:35:27.652Z,49.21
2018-08-13T10:37:55.104Z,48.79
2018-08-13T10:40:22.770Z,48.96
2018-08-13T10:42:50.226Z,48.71
2018-08-13T10:45:17.978Z,48.94
2018-08-13T10:47:45.737Z,49.02
2018-08-13T10:50:13.910Z,48.24
2018-08-13T10:52:41.618Z,48.09
2018-08-13T10:55:10.517Z,48.58
2018-08-13T10:57:38.129Z,48.58
2018-08-13T11:00:07.724Z,48.03
2018-08-13T11:02:35.491Z,48.08
2018-08-13T11:05:03.971Z,48.14
2018-08-13T11:07:31.451Z,47.86
2018-08-13T11:09:59.220Z,48.20
2018-08-13T11:12:26.740Z,47.08
2018-08-13T11:14:54.222Z,47.40
2018-08-13T11:17:22.088Z,46.34
2018-08-13T11:19:49.631Z,46.36
2018-08-13T11:22:47.992Z,46.37
2018-08-13T11:25:16.140Z,46.13
2018-08-13T11:27:43.779Z,45.34
2018-08-13T11:30:12.769Z,45.80
2018-08-13T11:32:40.388Z,45.99
2018-08-13T11:35:08.010Z,46.22
2018-08-13T11:37:36.009Z,45.66
2018-08-13T11:40:06.733Z,45.67
2018-08-13T11:42:34.229Z,45.70
2018-08-13T11:45:01.988Z,45.72
2018-08-13T11:47:29.788Z,45.33
2018-08-13T11:49:57.240Z,45.92
2018-08-13T11:52:25.041Z,46.56
2018-08-13T11:54:52.558Z,45.68
2018-08-13T11:57:20.004Z,45.80
2018-08-13T11:59:47.684Z,45.68
2018-08-13T12:02:15.152Z,45.87
2018-08-13T12:04:42.682Z,46.00
2018-08-13T12:07:10.672Z,45.48
2018-08-13T12:09:38.196Z,46.09
2018-08-13T12:12:05.737Z,45.59
2018-08-13T12:14:33.405Z,45.90
2018-08-13T12:17:00.961Z,46.10
2018-08-13T12:19:28.425Z,45.44
2018-08-13T12:21:56.178Z,45.71
2018-08-13T12:24:23.785Z,44.93
2018-08-13T12:26:51.272Z,44.58
2018-08-13T12:29:19.011Z,44.40
2018-08-13T12:31:46.549Z,44.17
2018-08-13T12:34:14.068Z,44.55
2018-08-13T12:36:41.746Z,44.94
2018-08-13T12:39:10.504Z,45.06
2018-08-13T12:41:38.105Z,44.81
2018-08-13T12:44:05.917Z,44.29
2018-08-13T12:46:33.411Z,44.49
2018-08-13T12:49:01.019Z,44.85
2018-08-13T12:51:28.635Z,44.37
2018-08-13T12:53:56.160Z,43.52
2018-08-13T12:56:23.654Z,44.12
2018-08-13T12:58:51.291Z,44.02
2018-08-13T13:01:18.779Z,43.60
2018-08-13T13:03:46.304Z,44.23
2018-08-13T13:06:14.060Z,43.76
2018-08-13T13:08:41.513Z,44.06
2018-08-13T13:11:09.056Z,43.87
2018-08-13T13:13:36.626Z,43.83
2018-08-13T13:16:04.174Z,43.93
2018-08-13T13:18:31.799Z,44.00
2018-08-13T13:20:59.569Z,43.85
2018-08-13T13:23:27.033Z,44.35
2018-08-13T13:25:54.548Z,44.16
2018-08-13T13:28:22.197Z,44.48
2018-08-13T13:30:49.737Z,43.86
2018-08-13T13:33:17.227Z,44.14
2018-08-13T13:35:44.875Z,44.32
2018-08-13T13:38:12.411Z,44.49
2018-08-13T13:40:39.915Z,44.73
2018-08-13T13:43:07.441Z,44.73
2018-08-13T13:45:35.000Z,44.24
2018-08-13T13:48:02.510Z,44.55
2018-08-13T13:50:30.462Z,44.47
2018-08-13T13:52:57.934Z,44.64
2018-08-13T13:55:25.452Z,44.19
2018-08-13T13:57:53.053Z,44.46
2018-08-13T14:00:21.260Z,44.07
2018-08-13T14:02:49.853Z,44.08
2018-08-13T14:05:17.720Z,43.76
2018-08-13T14:07:45.486Z,43.49
2018-08-13T14:10:14.766Z,43.76
2018-08-13T14:12:42.556Z,43.61
2018-08-13T14:15:11.876Z,43.13
2018-08-13T14:17:39.493Z,43.11
2018-08-13T14:20:07.785Z,43.10
2018-08-13T14:22:35.378Z,43.37
2018-08-13T14:25:03.031Z,43.09
2018-08-13T14:27:30.769Z,42.57
2018-08-13T14:29:58.230Z,42.71
2018-08-13T14:32:25.898Z,42.88
2018-08-13T14:34:53.706Z,43.15
2018-08-13T14:37:21.050Z,43.10
2018-08-13T14:39:48.592Z,43.04
2018-08-13T14:42:16.220Z,43.00
2018-08-13T14:44:43.807Z,42.75
2018-08-13T14:47:11.315Z,42.19
2018-08-13T14:49:38.975Z,42.20
2018-08-13T14:52:06.772Z,41.91
2018-08-13T14:54:34.284Z,42.13
2018-08-13T14:57:01.988Z,41.83
2018-08-13T14:59:29.582Z,42.17
2018-08-13T15:01:58.124Z,41.92
2018-08-13T15:04:25.764Z,42.08
2018-08-13T15:06:53.325Z,41.53
2018-08-13T15:09:20.768Z,41.91
2018-08-13T15:11:48.420Z,41.96
2018-08-13T15:14:15.969Z,41.98
2018-08-13T15:16:43.467Z,42.06
2018-08-13T15:19:11.509Z,41.81
2018-08-13T15:21:39.140Z,41.97
2018-08-13T15:24:06.851Z,41.36
2018-08-13T15:26:34.605Z,41.34
2018-08-13T15:29:02.115Z,41.68
2018-08-13T15:31:29.756Z,41.27
2018-08-13T15:33:57.421Z,41.41
2018-08-13T15:36:25.078Z,41.81
2018-08-13T15:38:52.569Z,41.93
2018-08-13T15:41:20.135Z,41.60
2018-08-13T15:43:47.883Z,41.45
2018-08-13T15:46:15.406Z,41.18
2018-08-13T15:48:43.233Z,40.89
2018-08-13T15:51:10.782Z,41.39
2018-08-13T15:53:38.358Z,40.90
2018-08-13T15:56:06.038Z,41.02
2018-08-13T15:58:33.561Z,41.07
2018-08-13T16:01:01.039Z,40.79
2018-08-13T16:03:28.765Z,41.10
2018-08-13T16:05:56.333Z,40.48
2018-08-13T16:08:23.838Z,40.83
2018-08-13T16:10:51.453Z,40.85
2018-08-13T16:13:19.006Z,40.96
2018-08-13T16:15:46.577Z,40.36
2018-08-13T16:18:15.218Z,40.34
2018-08-13T16:20:42.650Z,40.77
2018-08-13T16:23:10.174Z,40.38
2018-08-13T16:25:37.756Z,40.68
2018-08-13T16:28:05.386Z,40.54
2018-08-13T16:30:32.957Z,40.80
2018-08-13T16:33:00.608Z,40.95
2018-08-13T16:35:28.196Z,40.32
2018-08-13T16:37:55.935Z,40.44
2018-08-13T16:40:23.678Z,40.66
2018-08-13T16:42:51.615Z,40.99
2018-08-13T16:45:20.136Z,40.64
2018-08-13T16:47:47.950Z,40.56
2018-08-13T16:50:21.508Z,41.07
2018-08-13T16:52:49.304Z,41.03
2018-08-13T16:55:17.091Z,41.30
2018-08-13T16:57:44.583Z,40.75
2018-08-13T17:00:14.214Z,40.96
2018-08-13T17:02:41.768Z,41.27
2018-08-13T17:05:11.052Z,41.03
2018-08-13T17:07:38.942Z,40.33
2018-08-13T17:10:08.844Z,40.94
2018-08-13T17:12:36.344Z,40.42
2018-08-13T17:15:05.046Z,40.71
2018-08-13T17:17:32.565Z,40.52
2018-08-13T17:20:00.015Z,40.15
2018-08-13T17:22:27.627Z,40.62
2018-08-13T17:24:55.163Z,40.03
2018-08-13T17:27:22.708Z,39.88
2018-08-13T17:29:50.577Z,40.33
2018-08-13T17:32:18.128Z,40.87
2018-08-13T17:34:45.689Z,40.56
2018-08-13T17:37:13.363Z,40.67
2018-08-13T17:39:41.052Z,40.96
2018-08-13T17:42:08.594Z,40.78
2018-08-13T17:44:36.503Z,40.70
2018-08-13T17:47:04.077Z,41.08
2018-08-13T17:49:31.538Z,40.76
2018-08-13T17:51:59.173Z,40.98
2018-08-13T17:54:26.682Z,41.28
2018-08-13T17:56:54.391Z,41.24
2018-08-13T17:59:21.926Z,41.73
2018-08-13T18:01:49.499Z,41.69
2018-08-13T18:04:17.025Z,41.52
2018-08-13T18:06:44.720Z,41.66
2018-08-13T18:09:12.445Z,41.58
2018-08-13T18:11:40.212Z,41.71
2018-08-13T18:14:07.886Z,42.17
2018-08-13T18:16:35.621Z,42.23
2018-08-13T18:19:03.163Z,42.01
2018-08-13T18:21:30.937Z,42.66
2018-08-13T18:23:58.466Z,42.91
2018-08-13T18:26:26.014Z,43.59
2018-08-13T18:28:53.573Z,43.67
2018-08-13T18:31:21.171Z,43.22
2018-08-13T18:33:48.679Z,43.41
2018-08-13T18:36:16.300Z,43.69
2018-08-13T18:38:43.793Z,43.88
2018-08-13T18:41:11.327Z,44.50
2018-08-13T18:43:39.174Z,44.82
2018-08-13T18:46:06.823Z,44.76
2018-08-13T18:48:34.335Z,44.67
2018-08-13T18:51:01.982Z,45.14
2018-08-13T18:53:29.544Z,45.40
2018-08-13T18:55:57.075Z,46.04
2018-08-13T18:58:24.942Z,46.45
2018-08-13T19:00:53.098Z,46.21
2018-08-13T19:03:20.790Z,46.58
2018-08-13T19:05:48.462Z,46.54
2018-08-13T19:08:16.018Z,46.62
2018-08-13T19:10:43.528Z,47.26
2018-08-13T19:13:11.110Z,47.20
2018-08-13T19:15:38.737Z,47.43
2018-08-13T19:18:06.285Z,47.09
2018-08-13T19:20:34.282Z,47.40
2018-08-13T19:23:01.880Z,48.01
2018-08-13T19:25:29.830Z,47.64
2018-08-13T19:27:57.534Z,48.16
2018-08-13T19:30:25.660Z,48.59
2018-08-13T19:32:53.506Z,48.36
2018-08-13T19:35:21.314Z,48.90
2018-08-13T19:37:49.206Z,48.58
2018-08-13T19:40:18.672Z,49.18
2018-08-13T19:42:47.000Z,48.98
2018-08-13T19:45:15.527Z,49.46
2018-08-13T19:47:43.449Z,49.63
2018-08-13T19:50:11.426Z,49.78
2018-08-13T19:52:39.974Z,49.81
2018-08-13T19:55:07.937Z,50.22
2018-08-13T19:57:35.600Z,50.37
2018-08-13T20:00:04.148Z,50.70
2018-08-13T20:02:31.775Z,50.69
2018-08-13T20:04:59.359Z,50.60
2018-08-13T20:07:26.816Z,50.59
2018-08-13T20:09:54.276Z,51.09
2018-08-13T20:12:21.943Z,51.18
2018-08-13T20:14:49.657Z,50.91
2018-08-13T20:17:17.174Z,51.07
2018-08-13T20:19:44.953Z,51.36
2018-08-13T20:22:14.071Z,52.06
2018-08-13T20:24:42.156Z,51.93
2018-08-13T20:27:09.854Z,51.89
2018-08-13T20:29:37.474Z,51.86
2018-08-13T20:32:05.549Z,52.30
2018-08-13T20:34:33.263Z,52.57
2018-08-13T20:37:00.885Z,52.64
2018-08-13T20:39:28.502Z,52.64
2018-08-13T20:41:56.243Z,52.98
2018-08-13T20:44:23.825Z,52.69
2018-08-13T20:46:51.283Z,52.77
2018-08-13T20:49:19.032Z,53.62
2018-08-13T20:51:46.543Z,53.08
2018-08-13T20:54:14.081Z,53.39
2018-08-13T20:56:41.714Z,53.90
2018-08-13T20:59:09.196Z,53.26
2018-08-13T21:01:36.909Z,54.01
2018-08-13T21:04:04.550Z,54.34
2018-08-13T21:06:32.086Z,54.44
2018-08-13T21:08:58.966Z,54.06
2018-08-13T21:11:26.951Z,54.58
2018-08-13T21:13:53.837Z,54.28
2018-08-13T21:16:20.690Z,54.27
2018-08-13T21:18:47.744Z,54.35
2018-08-13T21:21:15.352Z,54.40
2018-08-13T21:23:42.243Z,54.44
2018-08-13T21:26:10.004Z,54.48
2018-08-13T21:28:37.500Z,54.78
2018-08-13T21:31:05.179Z,54.73
2018-08-13T21:33:32.868Z,54.75
2018-08-13T21:36:00.349Z,55.33
2018-08-13T21:38:27.846Z,55.44
2018-08-13T21:40:55.539Z,55.46
2018-08-13T21:43:23.080Z,54.88
2018-08-13T21:45:50.682Z,55.47
2018-08-13T21:48:18.458Z,55.76
2018-08-13T21:50:45.980Z,55.70
2018-08-13T21:53:13.510Z,55.58
2018-08-13T21:55:41.167Z,55.52
2018-08-13T21:58:08.702Z,55.74
2018-08-13T22:00:54.711Z,55.30
2018-08-13T22:03:22.745Z,55.32
2018-08-13T22:05:50.201Z,55.38
2018-08-13T22:08:17.690Z,55.38
2018-08-13T22:10:45.403Z,56.04
2018-08-13T22:13:12.990Z,56.05
2018-08-13T22:15:39.883Z,56.22
2018-08-13T22:18:08.172Z,55.98
2018-08-13T22:20:35.641Z,56.07
2018-08-13T22:23:03.885Z,56.55
2018-08-13T22:25:34.417Z,56.42
2018-08-13T22:28:01.967Z,56.45
2018-08-13T22:30:29.859Z,56.64
2018-08-13T22:32:57.623Z,56.55
2018-08-13T22:35:25.257Z,56.52
2018-08-13T22:37:52.724Z,56.61
2018-08-13T22:40:20.909Z,56.81
2018-08-13T22:42:48.541Z,56.89
2018-08-13T22:45:17.646Z,56.59
2018-08-13T22:47:45.328Z,56.91
2018-08-13T22:50:12.902Z,57.12
2018-08-13T22:52:40.528Z,56.60
2018-08-13T22:55:10.055Z,56.67
2018-08-13T22:57:37.570Z,56.97
2018-08-13T23:00:07.765Z,56.75
2018-08-13T23:02:35.546Z,56.78
2018-08-13T23:05:03.554Z,56.61
2018-08-13T23:07:31.004Z,57.15
2018-08-13T23:09:58.602Z,57.06
2018-08-13T23:12:26.079Z,56.90
2018-08-13T23:14:53.655Z,57.34
2018-08-13T23:17:21.371Z,57.31
2018-08-13T23:19:48.850Z,56.90
2018-08-13T23:22:55.402Z,57.05
2018-08-13T23:25:22.977Z,57.27
2018-08-13T23:27:51.712Z,57.38
2018-08-13T23:30:19.448Z,57.34
2018-08-13T23:32:48.075Z,57.76
2018-08-13T23:35:16.467Z,58.00
2018-08-13T23:37:44.268Z,57.66
2018-08-13T23:40:11.881Z,57.80
2018-08-13T23:42:39.345Z,57.48
2018-08-13T23:45:10.114Z,57.70
2018-08-13T23:47:37.714Z,57.55
2018-08-13T23:50:06.511Z,57.49
2018-08-13T23:52:34.227Z,57.40
2018-08-13T23:55:02.252Z,57.95
2018-08-13T23:57:29.830Z,57.89
2018-08-13T23:59:57.386Z,57.80
